createdAt,value
2019-02-10T00:00:05.393Z,998.52
2019-02-10T00:01:05.649Z,998.55
2019-02-10T00:02:05.178Z,998.48
2019-02-10T00:03:05.158Z,998.42
2019-02-10T00:04:05.128Z,998.36
2019-02-10T00:05:05.161Z,998.35
2019-02-10T00:06:04.923Z,998.35
2019-02-10T00:07:04.948Z,998.32
2019-02-10T00:08:05.561Z,998.31
2019-02-10T00:09:04.958Z,998.26
2019-02-10T00:10:04.795Z,998.24
2019-02-10T00:11:04.976Z,998.20
2019-02-10T00:12:04.838Z,998.16
2019-02-10T00:13:05.574Z,998.12
2019-02-10T00:14:04.759Z,998.09
2019-02-10T00:15:04.888Z,998.09
2019-02-10T00:16:04.628Z,998.09
2019-02-10T00:17:05.014Z,998.06
2019-02-10T00:18:04.734Z,998.04
2019-02-10T00:19:04.438Z,998.03
2019-02-10T00:20:04.563Z,998.00
2019-02-10T00:21:04.389Z,998.01
2019-02-10T00:22:04.506Z,997.99
2019-02-10T00:23:04.542Z,997.98
2019-02-10T00:24:04.547Z,997.95
2019-02-10T00:25:04.242Z,997.95
2019-02-10T00:26:04.212Z,997.96
2019-02-10T00:27:04.176Z,997.94
2019-02-10T00:28:04.382Z,997.91
2019-02-10T00:29:04.307Z,997.89
2019-02-10T00:30:04.140Z,997.86
2019-02-10T00:31:04.027Z,997.87
2019-02-10T00:32:04.043Z,997.82
2019-02-10T00:33:03.989Z,997.80
2019-02-10T00:34:04.012Z,997.78
2019-02-10T00:35:04.500Z,997.74
2019-02-10T00:36:03.860Z,997.68
2019-02-10T00:37:04.103Z,997.64
2019-02-10T00:38:03.804Z,997.61
2019-02-10T00:39:04.040Z,997.59
2019-02-10T00:40:03.869Z,997.59
2019-02-10T00:41:03.875Z,997.61
2019-02-10T00:42:03.805Z,997.58
2019-02-10T00:43:03.669Z,997.57
2019-02-10T00:44:03.796Z,997.52
2019-02-10T00:45:03.601Z,997.51
2019-02-10T00:46:03.804Z,997.49
2019-02-10T00:47:03.594Z,997.49
2019-02-10T00:48:03.629Z,997.41
2019-02-10T00:49:03.569Z,997.39
2019-02-10T00:50:03.370Z,997.40
2019-02-10T00:51:03.430Z,997.38
2019-02-10T00:52:03.306Z,997.37
2019-02-10T00:53:03.324Z,997.31
2019-02-10T00:54:03.295Z,997.27
2019-02-10T00:55:04.270Z,997.22
2019-02-10T00:56:03.165Z,997.17
2019-02-10T00:57:03.120Z,997.08
2019-02-10T00:58:03.234Z,997.04
2019-02-10T00:59:03.174Z,997.03
2019-02-10T01:00:03.018Z,996.99
2019-02-10T01:01:03.178Z,996.99
2019-02-10T01:02:03.020Z,996.92
2019-02-10T01:03:02.970Z,996.90
2019-02-10T01:04:03.026Z,996.88
2019-02-10T01:05:02.960Z,996.88
2019-02-10T01:06:02.798Z,996.88
2019-02-10T01:07:02.872Z,996.80
2019-02-10T01:08:02.970Z,996.72
2019-02-10T01:09:02.705Z,996.71
2019-02-10T01:10:02.746Z,996.63
2019-02-10T01:11:02.760Z,996.62
2019-02-10T01:12:02.585Z,996.57
2019-02-10T01:13:02.726Z,996.53
2019-02-10T01:14:02.559Z,996.51
2019-02-10T01:15:02.502Z,996.52
2019-02-10T01:16:02.635Z,996.46
2019-02-10T01:17:02.600Z,996.46
2019-02-10T01:18:02.394Z,996.51
2019-02-10T01:19:02.400Z,996.48
2019-02-10T01:20:02.316Z,996.45
2019-02-10T01:21:02.419Z,996.35
2019-02-10T01:22:02.247Z,996.34
2019-02-10T01:23:02.315Z,996.32
2019-02-10T01:24:02.262Z,996.23
2019-02-10T01:25:02.221Z,996.23
2019-02-10T01:26:02.145Z,996.21
2019-02-10T01:27:02.128Z,996.19
2019-02-10T01:28:02.286Z,996.19
2019-02-10T01:29:02.003Z,996.13
2019-02-10T01:30:01.988Z,996.10
2019-02-10T01:31:02.777Z,996.07
2019-02-10T01:32:01.883Z,996.05
2019-02-10T01:33:01.895Z,996.06
2019-02-10T01:34:01.882Z,995.98
2019-02-10T01:35:01.916Z,995.96
2019-02-10T01:36:01.771Z,995.94
2019-02-10T01:37:01.877Z,995.93
2019-02-10T01:38:01.692Z,995.90
2019-02-10T01:39:01.801Z,995.85
2019-02-10T01:40:01.631Z,995.81
2019-02-10T01:41:01.588Z,995.77
2019-02-10T01:42:01.724Z,995.73
2019-02-10T01:43:01.597Z,995.74
2019-02-10T01:44:01.549Z,995.70
2019-02-10T01:45:01.531Z,995.69
2019-02-10T01:46:01.520Z,995.64
2019-02-10T01:47:01.371Z,995.63
2019-02-10T01:48:01.380Z,995.56
2019-02-10T01:49:01.351Z,995.51
2019-02-10T01:50:01.277Z,995.44
2019-02-10T01:51:01.254Z,995.44
2019-02-10T01:52:01.251Z,995.39
2019-02-10T01:53:01.329Z,995.30
2019-02-10T01:54:01.138Z,995.24
2019-02-10T01:55:01.146Z,995.25
2019-02-10T01:56:01.068Z,995.17
2019-02-10T01:57:01.020Z,995.14
2019-02-10T01:58:01.002Z,995.06
2019-02-10T01:59:00.960Z,995.04
2019-02-10T02:00:01.033Z,994.94
2019-02-10T02:01:00.982Z,994.90
2019-02-10T02:02:00.837Z,994.84
2019-02-10T02:03:00.821Z,994.82
2019-02-10T02:04:00.771Z,994.79
2019-02-10T02:05:00.727Z,994.73
2019-02-10T02:06:00.706Z,994.69
2019-02-10T02:07:00.659Z,994.66
2019-02-10T02:08:00.806Z,994.63
2019-02-10T02:09:00.747Z,994.64
2019-02-10T02:10:00.582Z,994.62
2019-02-10T02:11:00.573Z,994.60
2019-02-10T02:12:00.542Z,994.61
2019-02-10T02:13:00.507Z,994.59
2019-02-10T02:14:00.479Z,994.59
2019-02-10T02:15:00.589Z,994.58
2019-02-10T02:16:00.619Z,994.59
2019-02-10T02:17:00.490Z,994.53
2019-02-10T02:18:00.279Z,994.54
2019-02-10T02:19:00.298Z,994.50
2019-02-10T02:20:00.422Z,994.47
2019-02-10T02:21:00.280Z,994.43
2019-02-10T02:22:00.553Z,994.41
2019-02-10T02:23:00.146Z,994.42
2019-02-10T02:24:00.078Z,994.35
2019-02-10T02:25:00.265Z,994.30
2019-02-10T02:26:00.204Z,994.26
2019-02-10T02:27:00.227Z,994.26
2019-02-10T02:28:00.089Z,994.19
2019-02-10T02:28:59.963Z,994.17
2019-02-10T02:30:00.047Z,994.13
2019-02-10T02:30:59.959Z,994.15
2019-02-10T02:31:59.808Z,994.09
2019-02-10T02:32:59.747Z,994.04
2019-02-10T02:33:59.728Z,993.98
2019-02-10T02:34:59.871Z,993.99
2019-02-10T02:35:59.773Z,993.93
2019-02-10T02:37:07.701Z,993.88
2019-02-10T02:37:59.678Z,993.87
2019-02-10T02:38:59.758Z,993.78
2019-02-10T02:39:59.714Z,993.74
2019-02-10T02:40:59.470Z,993.72
2019-02-10T02:41:59.493Z,993.70
2019-02-10T02:42:59.419Z,993.62
2019-02-10T02:43:59.514Z,993.57
2019-02-10T02:44:59.339Z,993.51
2019-02-10T02:45:59.406Z,993.50
2019-02-10T02:46:59.264Z,993.46
2019-02-10T02:47:59.373Z,993.47
2019-02-10T02:48:59.253Z,993.45
2019-02-10T02:49:59.213Z,993.47
2019-02-10T02:51:00.856Z,993.40
2019-02-10T02:51:59.102Z,993.41
2019-02-10T02:52:59.113Z,993.37
2019-02-10T02:53:59.115Z,993.35
2019-02-10T02:54:59.125Z,993.38
2019-02-10T02:55:58.998Z,993.31
2019-02-10T02:56:58.895Z,993.28
2019-02-10T02:57:58.866Z,993.22
2019-02-10T02:58:58.872Z,993.26
2019-02-10T02:59:58.802Z,993.21
2019-02-10T03:00:58.823Z,993.21
2019-02-10T03:01:58.720Z,993.28
2019-02-10T03:02:58.851Z,993.20
2019-02-10T03:03:58.671Z,993.16
2019-02-10T03:04:58.755Z,993.14
2019-02-10T03:05:58.594Z,992.98
2019-02-10T03:06:58.653Z,992.92
2019-02-10T03:07:58.612Z,992.78
2019-02-10T03:08:58.466Z,992.81
2019-02-10T03:09:58.455Z,992.86
2019-02-10T03:10:58.411Z,992.76
2019-02-10T03:11:58.461Z,992.66
2019-02-10T03:12:58.346Z,992.70
2019-02-10T03:13:58.455Z,992.70
2019-02-10T03:14:58.297Z,992.67
2019-02-10T03:15:58.292Z,992.63
2019-02-10T03:16:58.286Z,992.58
2019-02-10T03:17:58.167Z,992.56
2019-02-10T03:18:58.118Z,992.57
2019-02-10T03:19:58.082Z,992.51
2019-02-10T03:20:58.038Z,992.49
2019-02-10T03:21:58.003Z,992.45
2019-02-10T03:22:58.094Z,992.43
2019-02-10T03:23:57.943Z,992.37
2019-02-10T03:24:57.890Z,992.25
2019-02-10T03:25:57.907Z,992.31
2019-02-10T03:26:57.827Z,992.28
2019-02-10T03:27:57.881Z,992.23
2019-02-10T03:28:57.916Z,992.18
2019-02-10T03:29:57.722Z,992.15
2019-02-10T03:30:57.719Z,992.11
2019-02-10T03:31:57.651Z,991.98
2019-02-10T03:32:57.717Z,992.00
2019-02-10T03:33:57.581Z,991.95
2019-02-10T03:34:57.815Z,991.90
2019-02-10T03:35:57.497Z,991.85
2019-02-10T03:36:57.473Z,991.84
2019-02-10T03:37:57.464Z,991.69
2019-02-10T03:38:57.412Z,991.72
2019-02-10T03:39:57.457Z,991.71
2019-02-10T03:40:57.363Z,991.68
2019-02-10T03:41:57.327Z,991.70
2019-02-10T03:42:57.319Z,991.65
2019-02-10T03:43:57.223Z,991.57
2019-02-10T03:44:57.178Z,991.53
2019-02-10T03:45:57.142Z,991.51
2019-02-10T03:46:57.108Z,991.43
2019-02-10T03:47:57.120Z,991.39
2019-02-10T03:48:57.026Z,991.38
2019-02-10T03:49:57.071Z,991.32
2019-02-10T03:50:56.964Z,991.25
2019-02-10T03:51:56.949Z,991.19
2019-02-10T03:52:56.883Z,991.16
2019-02-10T03:53:56.864Z,991.15
2019-02-10T03:54:56.892Z,991.17
2019-02-10T03:55:56.781Z,991.10
2019-02-10T03:56:56.755Z,991.06
2019-02-10T03:57:56.712Z,991.05
2019-02-10T03:58:56.843Z,991.00
2019-02-10T03:59:56.679Z,991.00
2019-02-10T04:00:56.643Z,990.98
2019-02-10T04:01:56.558Z,990.93
2019-02-10T04:02:56.626Z,990.93
2019-02-10T04:03:56.609Z,990.86
2019-02-10T04:04:56.509Z,990.86
2019-02-10T04:05:56.578Z,990.82
2019-02-10T04:06:56.527Z,990.79
2019-02-10T04:07:59.214Z,990.73
2019-02-10T04:08:56.372Z,990.73
2019-02-10T04:09:56.383Z,990.71
2019-02-10T04:10:56.381Z,990.70
2019-02-10T04:11:56.333Z,990.62
2019-02-10T04:12:56.209Z,990.56
2019-02-10T04:13:56.164Z,990.58
2019-02-10T04:14:56.098Z,990.50
2019-02-10T04:15:56.160Z,990.42
2019-02-10T04:16:56.088Z,990.40
2019-02-10T04:17:56.095Z,990.42
2019-02-10T04:18:56.108Z,990.37
2019-02-10T04:19:56.140Z,990.33
2019-02-10T04:20:55.900Z,990.32
2019-02-10T04:21:55.935Z,990.23
2019-02-10T04:22:55.804Z,990.19
2019-02-10T04:23:55.775Z,990.14
2019-02-10T04:24:55.858Z,990.07
2019-02-10T04:25:55.705Z,990.08
2019-02-10T04:26:55.683Z,990.10
2019-02-10T04:27:56.154Z,990.03
2019-02-10T04:28:55.606Z,989.95
2019-02-10T04:29:56.289Z,989.92
2019-02-10T04:30:55.934Z,989.89
2019-02-10T04:31:55.771Z,989.80
2019-02-10T04:32:55.612Z,989.70
2019-02-10T04:33:55.443Z,989.71
2019-02-10T04:34:55.463Z,989.74
2019-02-10T04:35:55.350Z,989.67
2019-02-10T04:36:55.415Z,989.61
2019-02-10T04:37:56.100Z,989.54
2019-02-10T04:38:55.411Z,989.54
2019-02-10T04:39:55.663Z,989.49
2019-02-10T04:40:55.354Z,989.46
2019-02-10T04:41:55.219Z,989.41
2019-02-10T04:42:55.521Z,989.36
2019-02-10T04:43:55.250Z,989.40
2019-02-10T04:44:55.141Z,989.36
2019-02-10T04:45:55.253Z,989.33
2019-02-10T04:46:55.054Z,989.26
2019-02-10T04:47:55.075Z,989.23
2019-02-10T04:48:55.301Z,989.16
2019-02-10T04:49:54.940Z,989.16
2019-02-10T04:50:54.830Z,989.12
2019-02-10T04:51:54.905Z,989.09
2019-02-10T04:52:55.589Z,989.06
2019-02-10T04:53:54.905Z,989.07
2019-02-10T04:54:54.766Z,989.00
2019-02-10T04:55:54.970Z,988.97
2019-02-10T04:56:54.819Z,988.95
2019-02-10T04:57:54.751Z,988.94
2019-02-10T04:58:54.745Z,988.90
2019-02-10T04:59:54.629Z,988.88
2019-02-10T05:00:54.566Z,988.84
2019-02-10T05:01:54.656Z,988.79
2019-02-10T05:02:54.431Z,988.81
2019-02-10T05:03:54.358Z,988.73
2019-02-10T05:04:54.363Z,988.72
2019-02-10T05:05:54.291Z,988.70
2019-02-10T05:06:54.227Z,988.65
2019-02-10T05:07:54.876Z,988.68
2019-02-10T05:08:54.334Z,988.63
2019-02-10T05:09:54.328Z,988.57
2019-02-10T05:10:54.098Z,988.55
2019-02-10T05:11:54.156Z,988.54
2019-02-10T05:12:54.027Z,988.49
2019-02-10T05:13:54.096Z,988.43
2019-02-10T05:14:54.081Z,988.36
2019-02-10T05:15:54.122Z,988.38
2019-02-10T05:16:53.929Z,988.32
2019-02-10T05:17:53.837Z,988.28
2019-02-10T05:18:54.160Z,988.26
2019-02-10T05:19:53.881Z,988.23
2019-02-10T05:20:53.925Z,988.18
2019-02-10T05:21:53.781Z,988.12
2019-02-10T05:22:53.676Z,988.08
2019-02-10T05:24:02.756Z,988.03
2019-02-10T05:24:53.643Z,988.01
2019-02-10T05:25:53.687Z,987.97
2019-02-10T05:26:53.742Z,987.90
2019-02-10T05:27:53.506Z,987.91
2019-02-10T05:28:53.536Z,987.90
2019-02-10T05:29:53.739Z,987.86
2019-02-10T05:30:53.376Z,987.78
2019-02-10T05:31:53.628Z,987.74
2019-02-10T05:32:53.370Z,987.80
2019-02-10T05:33:53.339Z,987.65
2019-02-10T05:34:53.239Z,987.64
2019-02-10T05:35:53.313Z,987.69
2019-02-10T05:36:53.168Z,987.61
2019-02-10T05:38:03.582Z,987.58
2019-02-10T05:38:53.247Z,987.55
2019-02-10T05:39:53.177Z,987.57
2019-02-10T05:40:53.187Z,987.51
2019-02-10T05:41:52.991Z,987.48
2019-02-10T05:42:53.069Z,987.48
2019-02-10T05:43:52.937Z,987.41
2019-02-10T05:44:52.879Z,987.42
2019-02-10T05:45:52.993Z,987.43
2019-02-10T05:46:53.134Z,987.27
2019-02-10T05:47:52.813Z,987.33
2019-02-10T05:48:52.829Z,987.24
2019-02-10T05:49:52.878Z,987.21
2019-02-10T05:50:52.676Z,987.22
2019-02-10T05:51:52.664Z,987.11
2019-02-10T05:52:53.128Z,987.13
2019-02-10T05:53:52.698Z,987.08
2019-02-10T05:54:52.682Z,987.03
2019-02-10T05:55:52.608Z,987.00
2019-02-10T05:56:53.386Z,987.01
2019-02-10T05:57:52.522Z,986.97
2019-02-10T05:58:52.437Z,986.98
2019-02-10T05:59:52.457Z,986.91
2019-02-10T06:00:52.381Z,986.91
2019-02-10T06:01:52.282Z,986.94
2019-02-10T06:02:52.503Z,986.87
2019-02-10T06:03:52.300Z,986.80
2019-02-10T06:04:52.198Z,986.79
2019-02-10T06:05:52.253Z,986.80
2019-02-10T06:06:52.285Z,986.74
2019-02-10T06:07:52.090Z,986.68
2019-02-10T06:08:52.109Z,986.64
2019-02-10T06:09:51.993Z,986.67
2019-02-10T06:10:51.965Z,986.59
2019-02-10T06:11:52.074Z,986.58
2019-02-10T06:12:51.939Z,986.56
2019-02-10T06:13:51.905Z,986.55
2019-02-10T06:14:51.828Z,986.55
2019-02-10T06:15:51.830Z,986.57
2019-02-10T06:16:51.995Z,986.50
2019-02-10T06:17:51.855Z,986.48
2019-02-10T06:18:52.060Z,986.40
2019-02-10T06:19:51.725Z,986.40
2019-02-10T06:20:51.643Z,986.37
2019-02-10T06:21:51.880Z,986.33
2019-02-10T06:22:51.805Z,986.27
2019-02-10T06:23:51.538Z,986.28
2019-02-10T06:24:51.809Z,986.22
2019-02-10T06:25:51.538Z,986.24
2019-02-10T06:26:53.130Z,986.20
2019-02-10T06:27:52.112Z,986.18
2019-02-10T06:28:51.646Z,986.16
2019-02-10T06:29:51.440Z,986.16
2019-02-10T06:30:51.485Z,986.07
2019-02-10T06:31:51.865Z,986.05
2019-02-10T06:32:52.207Z,986.09
2019-02-10T06:33:51.650Z,986.03
2019-02-10T06:34:51.496Z,986.01
2019-02-10T06:35:51.597Z,985.98
2019-02-10T06:36:54.560Z,985.99
2019-02-10T06:37:52.140Z,985.98
2019-02-10T06:38:50.982Z,985.96
2019-02-10T06:39:52.015Z,985.95
2019-02-10T06:40:51.475Z,985.99
2019-02-10T06:41:51.610Z,985.87
2019-02-10T06:42:51.612Z,985.86
2019-02-10T06:43:51.986Z,985.86
2019-02-10T06:44:51.609Z,985.81
2019-02-10T06:45:54.303Z,985.82
2019-02-10T06:46:52.332Z,985.83
2019-02-10T06:47:50.686Z,985.72
2019-02-10T06:48:51.124Z,985.80
2019-02-10T06:49:51.167Z,985.75
2019-02-10T06:50:50.557Z,985.72
2019-02-10T06:51:51.801Z,985.66
2019-02-10T06:52:50.685Z,985.69
2019-02-10T06:53:50.530Z,985.61
2019-02-10T06:54:50.981Z,985.65
2019-02-10T06:55:50.468Z,985.56
2019-02-10T06:56:50.557Z,985.55
2019-02-10T06:57:50.480Z,985.64
2019-02-10T06:58:50.367Z,985.53
2019-02-10T06:59:50.350Z,985.54
2019-02-10T07:00:50.243Z,985.51
2019-02-10T07:01:50.168Z,985.50
2019-02-10T07:02:50.302Z,985.50
2019-02-10T07:03:50.296Z,985.46
2019-02-10T07:04:50.127Z,985.35
2019-02-10T07:05:50.162Z,985.43
2019-02-10T07:06:50.143Z,985.35
2019-02-10T07:07:50.026Z,985.41
2019-02-10T07:08:49.938Z,985.38
2019-02-10T07:09:50.966Z,985.40
2019-02-10T07:10:49.955Z,985.36
2019-02-10T07:11:50.047Z,985.35
2019-02-10T07:12:49.811Z,985.36
2019-02-10T07:13:49.916Z,985.39
2019-02-10T07:14:50.031Z,985.32
2019-02-10T07:15:49.947Z,985.31
2019-02-10T07:16:49.792Z,985.23
2019-02-10T07:17:49.648Z,985.26
2019-02-10T07:18:51.092Z,985.18
2019-02-10T07:19:50.049Z,985.23
2019-02-10T07:20:49.809Z,985.16
2019-02-10T07:21:50.799Z,985.17
2019-02-10T07:22:49.473Z,985.19
2019-02-10T07:23:49.541Z,985.26
2019-02-10T07:24:49.879Z,985.16
2019-02-10T07:25:49.782Z,985.17
2019-02-10T07:26:50.218Z,985.17
2019-02-10T07:27:50.121Z,985.16
2019-02-10T07:28:49.604Z,985.15
2019-02-10T07:29:49.291Z,985.11
2019-02-10T07:30:49.620Z,985.12
2019-02-10T07:31:51.637Z,985.16
2019-02-10T07:32:49.242Z,985.12
2019-02-10T07:33:49.509Z,985.07
2019-02-10T07:34:49.047Z,985.09
2019-02-10T07:35:51.535Z,985.04
2019-02-10T07:36:49.384Z,985.01
2019-02-10T07:37:49.257Z,985.05
2019-02-10T07:38:51.003Z,984.99
2019-02-10T07:39:49.678Z,984.96
2019-02-10T07:40:49.308Z,984.95
2019-02-10T07:41:49.328Z,984.99
2019-02-10T07:42:49.038Z,984.98
2019-02-10T07:43:48.999Z,984.97
2019-02-10T07:44:49.044Z,984.98
2019-02-10T07:45:49.229Z,984.98
2019-02-10T07:46:48.908Z,985.12
2019-02-10T07:47:48.916Z,985.09
2019-02-10T07:48:49.143Z,984.97
2019-02-10T07:49:50.201Z,984.93
2019-02-10T07:50:48.929Z,984.99
2019-02-10T07:51:48.933Z,984.98
2019-02-10T07:52:48.557Z,984.90
2019-02-10T07:53:48.574Z,984.96
2019-02-10T07:54:48.494Z,984.92
2019-02-10T07:55:48.329Z,984.92
2019-02-10T07:56:48.370Z,984.90
2019-02-10T07:57:48.229Z,984.91
2019-02-10T07:58:48.545Z,984.89
2019-02-10T07:59:48.262Z,984.90
2019-02-10T08:00:48.214Z,984.86
2019-02-10T08:01:48.181Z,984.80
2019-02-10T08:02:48.151Z,984.84
2019-02-10T08:03:48.130Z,984.85
2019-02-10T08:04:48.000Z,984.80
2019-02-10T08:05:48.014Z,984.73
2019-02-10T08:06:48.106Z,984.72
2019-02-10T08:07:47.953Z,984.73
2019-02-10T08:08:48.038Z,984.76
2019-02-10T08:09:47.819Z,984.66
2019-02-10T08:10:47.784Z,984.67
2019-02-10T08:11:47.875Z,984.71
2019-02-10T08:12:48.322Z,984.68
2019-02-10T08:13:48.014Z,984.66
2019-02-10T08:14:47.685Z,984.66
2019-02-10T08:15:47.670Z,984.61
2019-02-10T08:16:47.663Z,984.56
2019-02-10T08:17:47.584Z,984.53
2019-02-10T08:18:48.418Z,984.53
2019-02-10T08:19:47.691Z,984.48
2019-02-10T08:20:50.207Z,984.61
2019-02-10T08:21:47.699Z,984.50
2019-02-10T08:22:47.437Z,984.47
2019-02-10T08:23:48.210Z,984.39
2019-02-10T08:24:47.384Z,984.36
2019-02-10T08:25:47.423Z,984.26
2019-02-10T08:26:47.284Z,984.25
2019-02-10T08:27:47.210Z,984.30
2019-02-10T08:28:47.995Z,984.29
2019-02-10T08:29:48.259Z,984.29
2019-02-10T08:30:47.154Z,984.28
2019-02-10T08:31:47.116Z,984.25
2019-02-10T08:32:47.696Z,984.10
2019-02-10T08:33:47.696Z,984.09
2019-02-10T08:34:47.212Z,984.09
2019-02-10T08:35:46.940Z,984.14
2019-02-10T08:36:47.041Z,984.12
2019-02-10T08:37:47.357Z,984.15
2019-02-10T08:38:54.280Z,984.14
2019-02-10T08:39:46.960Z,984.11
2019-02-10T08:40:46.946Z,984.11
2019-02-10T08:41:46.737Z,984.16
2019-02-10T08:42:46.734Z,984.02
2019-02-10T08:43:46.769Z,984.10
2019-02-10T08:44:46.680Z,984.03
2019-02-10T08:45:48.085Z,984.01
2019-02-10T08:46:47.125Z,983.98
2019-02-10T08:47:46.515Z,983.94
2019-02-10T08:48:46.641Z,984.00
2019-02-10T08:49:46.885Z,983.98
2019-02-10T08:50:46.563Z,983.97
2019-02-10T08:51:46.431Z,983.94
2019-02-10T08:52:51.694Z,983.96
2019-02-10T08:53:46.336Z,983.96
2019-02-10T08:54:46.327Z,983.86
2019-02-10T08:55:46.712Z,983.83
2019-02-10T08:56:46.591Z,983.82
2019-02-10T08:57:46.297Z,983.77
2019-02-10T08:58:46.147Z,983.84
2019-02-10T08:59:46.136Z,983.81
2019-02-10T09:00:46.373Z,983.73
2019-02-10T09:01:46.156Z,983.70
2019-02-10T09:02:47.005Z,983.70
2019-02-10T09:03:46.127Z,983.67
2019-02-10T09:04:46.066Z,983.65
2019-02-10T09:05:45.952Z,983.57
2019-02-10T09:06:45.872Z,983.59
2019-02-10T09:07:45.931Z,983.62
2019-02-10T09:08:51.633Z,983.60
2019-02-10T09:09:46.198Z,983.53
2019-02-10T09:10:45.961Z,983.54
2019-02-10T09:11:45.757Z,983.47
2019-02-10T09:12:45.786Z,983.49
2019-02-10T09:13:45.912Z,983.38
2019-02-10T09:14:45.631Z,983.46
2019-02-10T09:15:45.562Z,983.46
2019-02-10T09:16:45.708Z,983.41
2019-02-10T09:17:45.681Z,983.44
2019-02-10T09:18:45.494Z,983.43
2019-02-10T09:19:46.432Z,983.41
2019-02-10T09:20:45.774Z,983.44
2019-02-10T09:21:45.638Z,983.42
2019-02-10T09:22:45.653Z,983.41
2019-02-10T09:23:48.722Z,983.49
2019-02-10T09:24:45.662Z,983.38
2019-02-10T09:25:45.315Z,983.34
2019-02-10T09:26:45.719Z,983.34
2019-02-10T09:27:45.416Z,983.35
2019-02-10T09:28:45.126Z,983.36
2019-02-10T09:29:45.083Z,983.36
2019-02-10T09:30:45.157Z,983.39
2019-02-10T09:31:45.023Z,983.36
2019-02-10T09:32:45.050Z,983.37
2019-02-10T09:33:45.237Z,983.39
2019-02-10T09:34:45.348Z,983.32
2019-02-10T09:35:44.983Z,983.29
2019-02-10T09:36:44.847Z,983.28
2019-02-10T09:37:44.945Z,983.31
2019-02-10T09:38:45.108Z,983.32
2019-02-10T09:39:44.788Z,983.22
2019-02-10T09:40:44.695Z,983.24
2019-02-10T09:41:44.834Z,983.24
2019-02-10T09:42:45.175Z,983.14
2019-02-10T09:43:44.769Z,983.19
2019-02-10T09:44:44.609Z,983.20
2019-02-10T09:45:44.524Z,983.15
2019-02-10T09:46:44.889Z,983.19
2019-02-10T09:47:44.610Z,983.22
2019-02-10T09:48:44.503Z,983.13
2019-02-10T09:49:45.865Z,983.18
2019-02-10T09:50:44.479Z,983.13
2019-02-10T09:51:44.529Z,983.16
2019-02-10T09:52:44.445Z,983.14
2019-02-10T09:53:44.750Z,983.16
2019-02-10T09:54:44.720Z,983.09
2019-02-10T09:55:44.403Z,983.07
2019-02-10T09:56:44.775Z,983.12
2019-02-10T09:57:44.160Z,983.09
2019-02-10T09:58:44.404Z,983.10
2019-02-10T09:59:47.334Z,983.06
2019-02-10T10:00:45.094Z,983.09
2019-02-10T10:01:45.120Z,983.05
2019-02-10T10:02:44.352Z,983.09
2019-02-10T10:03:43.920Z,983.06
2019-02-10T10:04:44.016Z,983.10
2019-02-10T10:05:44.719Z,983.05
2019-02-10T10:06:45.097Z,983.01
2019-02-10T10:07:43.798Z,983.10
2019-02-10T10:08:43.871Z,983.08
2019-02-10T10:09:44.030Z,983.12
2019-02-10T10:10:43.714Z,983.13
2019-02-10T10:11:43.732Z,983.17
2019-02-10T10:12:43.664Z,983.08
2019-02-10T10:13:43.701Z,983.12
2019-02-10T10:14:43.564Z,983.08
2019-02-10T10:15:43.541Z,983.15
2019-02-10T10:16:44.075Z,983.10
2019-02-10T10:17:43.439Z,983.09
2019-02-10T10:18:43.426Z,983.02
2019-02-10T10:19:44.266Z,983.13
2019-02-10T10:20:43.326Z,983.08
2019-02-10T10:21:44.284Z,983.11
2019-02-10T10:22:43.518Z,983.14
2019-02-10T10:23:44.237Z,983.10
2019-02-10T10:24:50.309Z,983.11
2019-02-10T10:25:43.214Z,983.13
2019-02-10T10:26:43.295Z,983.15
2019-02-10T10:27:43.172Z,983.11
2019-02-10T10:28:43.193Z,983.07
2019-02-10T10:29:43.011Z,983.09
2019-02-10T10:30:43.366Z,983.07
2019-02-10T10:31:42.935Z,983.04
2019-02-10T10:32:43.080Z,983.06
2019-02-10T10:33:43.235Z,983.14
2019-02-10T10:34:43.115Z,983.14
2019-02-10T10:35:42.848Z,983.19
2019-02-10T10:36:42.902Z,983.15
2019-02-10T10:37:42.894Z,983.12
2019-02-10T10:38:42.900Z,983.16
2019-02-10T10:39:42.686Z,983.23
2019-02-10T10:40:42.805Z,983.18
2019-02-10T10:41:42.691Z,983.21
2019-02-10T10:42:42.817Z,983.20
2019-02-10T10:43:42.791Z,983.20
2019-02-10T10:44:42.528Z,983.17
2019-02-10T10:45:42.979Z,983.17
2019-02-10T10:46:42.528Z,983.18
2019-02-10T10:47:42.554Z,983.26
2019-02-10T10:48:42.346Z,983.28
2019-02-10T10:49:42.335Z,983.27
2019-02-10T10:50:42.322Z,983.25
2019-02-10T10:51:42.251Z,983.24
2019-02-10T10:52:45.786Z,983.30
2019-02-10T10:53:42.856Z,983.29
2019-02-10T10:54:43.019Z,983.38
2019-02-10T10:55:43.026Z,983.48
2019-02-10T10:56:42.221Z,983.51
2019-02-10T10:57:42.283Z,983.41
2019-02-10T10:58:42.087Z,983.41
2019-02-10T10:59:42.237Z,983.41
2019-02-10T11:00:42.080Z,983.43
2019-02-10T11:01:42.036Z,983.36
2019-02-10T11:02:41.887Z,983.34
2019-02-10T11:03:41.896Z,983.36
2019-02-10T11:04:41.906Z,983.31
2019-02-10T11:05:41.916Z,983.27
2019-02-10T11:06:47.580Z,983.27
2019-02-10T11:07:45.154Z,983.29
2019-02-10T11:08:42.036Z,983.27
2019-02-10T11:09:41.820Z,983.24
2019-02-10T11:10:41.903Z,983.25
2019-02-10T11:11:41.564Z,983.19
2019-02-10T11:12:41.779Z,983.17
2019-02-10T11:13:43.291Z,983.11
2019-02-10T11:14:41.675Z,983.13
2019-02-10T11:15:41.677Z,983.11
2019-02-10T11:16:43.990Z,983.07
2019-02-10T11:17:42.214Z,983.15
2019-02-10T11:18:42.404Z,983.19
2019-02-10T11:19:41.296Z,983.13
2019-02-10T11:20:42.406Z,983.10
2019-02-10T11:21:41.602Z,983.09
2019-02-10T11:22:41.729Z,983.16
2019-02-10T11:23:42.599Z,983.12
2019-02-10T11:24:41.470Z,983.13
2019-02-10T11:25:41.319Z,983.13
2019-02-10T11:26:41.384Z,983.12
2019-02-10T11:27:49.662Z,983.02
2019-02-10T11:29:45.402Z,983.07
2019-02-10T11:30:45.349Z,983.13
2019-02-10T11:31:45.310Z,983.19
2019-02-10T11:32:45.295Z,983.11
2019-02-10T11:33:45.239Z,983.09
2019-02-10T11:34:46.313Z,983.09
2019-02-10T11:35:45.180Z,983.12
2019-02-10T11:36:45.150Z,983.07
2019-02-10T11:37:45.111Z,983.00
2019-02-10T11:38:45.064Z,983.07
2019-02-10T11:39:45.059Z,983.03
2019-02-10T11:40:44.999Z,983.00
2019-02-10T11:41:44.998Z,983.01
2019-02-10T11:42:44.928Z,982.99
2019-02-10T11:43:44.885Z,983.01
2019-02-10T11:44:44.869Z,983.02
2019-02-10T11:45:44.843Z,983.04
2019-02-10T11:46:44.799Z,983.03
2019-02-10T11:47:44.750Z,983.00
2019-02-10T11:48:44.720Z,983.02
2019-02-10T11:49:44.681Z,983.00
2019-02-10T11:50:44.659Z,983.07
2019-02-10T11:51:44.605Z,983.00
2019-02-10T11:52:44.595Z,983.12
2019-02-10T11:53:44.539Z,983.06
2019-02-10T11:54:44.513Z,983.06
2019-02-10T11:55:44.470Z,983.09
2019-02-10T11:56:44.450Z,983.07
2019-02-10T11:57:44.411Z,983.06
2019-02-10T11:58:44.370Z,983.06
2019-02-10T11:59:44.334Z,983.07
2019-02-10T12:00:44.296Z,983.09
2019-02-10T12:01:44.266Z,983.05
2019-02-10T12:02:44.236Z,983.00
2019-02-10T12:03:44.200Z,983.02
2019-02-10T12:04:44.174Z,982.97
2019-02-10T12:05:44.167Z,983.01
2019-02-10T12:06:44.104Z,983.03
2019-02-10T12:07:44.056Z,982.98
2019-02-10T12:08:44.017Z,983.01
2019-02-10T12:09:51.377Z,983.04
2019-02-10T12:10:43.955Z,983.05
2019-02-10T12:11:43.924Z,983.11
2019-02-10T12:12:43.875Z,983.08
2019-02-10T12:13:43.866Z,983.06
2019-02-10T12:14:43.829Z,983.08
2019-02-10T12:15:43.780Z,983.14
2019-02-10T12:16:43.755Z,983.09
2019-02-10T12:17:43.733Z,983.09
2019-02-10T12:18:43.675Z,983.07
2019-02-10T12:19:43.651Z,983.05
2019-02-10T12:20:43.608Z,983.08
2019-02-10T12:21:43.567Z,983.09
2019-02-10T12:22:50.029Z,983.11
2019-02-10T12:23:43.536Z,983.09
2019-02-10T12:24:43.461Z,983.09
2019-02-10T12:25:43.417Z,983.11
2019-02-10T12:26:43.441Z,983.13
2019-02-10T12:27:43.363Z,983.14
2019-02-10T12:28:43.321Z,983.15